Time;durP1;ratioP1;P1;durP2;ratioP2;P2;SDS_P1;SDS_P2;PMS_P1;PMS_P2;Temp;Humidity;BMP_temperature;BMP_pressure;BME280_temperature;BME280_humidity;BME280_pressure;Samples;Min_cycle;Max_cycle;Signal;HPM_P1;HPM_P2
2022/01/13 00:00:53;;;;;;;75.40;34.70;;;;;;;-0.02;82.41;102027.60;87638;1283;99521;-78
2022/01/13 00:03:02;;;;;;;66.10;32.10;;;;;;;-0.07;82.60;102028.26;87583;1284;86979;-59
2022/01/13 00:05:12;;;;;;;68.90;33.20;;;;;;;-0.05;82.67;102031.52;87600;1284;95589;-60
2022/01/13 00:07:20;;;;;;;68.40;33.70;;;;;;;-0.06;82.64;102033.15;87573;1284;80900;-59
2022/01/13 00:09:27;;;;;;;67.60;31.70;;;;;;;-0.05;82.67;102030.27;87670;1283;80206;-61
2022/01/13 00:11:33;;;;;;;65.00;31.90;;;;;;;-0.04;82.80;102024.33;87495;1285;100537;-77
2022/01/13 00:13:47;;;;;;;64.50;30.40;;;;;;;-0.03;83.03;102018.11;87671;1283;87637;-77
2022/01/13 00:16:23;;;;;;;67.50;31.40;;;;;;;-0.07;83.01;102009.64;87577;1284;94423;-76
2022/01/13 00:18:38;;;;;;;61.30;30.30;;;;;;;-0.03;83.10;102003.61;87595;1284;77566;-58
2022/01/13 00:25:34;;;;;;;66.80;32.70;;;;;;;-0.03;83.17;101999.69;87613;1284;88972;-78
2022/01/13 00:27:50;;;;;;;69.00;33.30;;;;;;;-0.02;82.94;102006.73;87674;1283;95283;-61
2022/01/13 00:29:59;;;;;;;64.60;31.20;;;;;;;-0.02;82.96;102007.77;87637;1283;82958;-59
2022/01/13 00:32:10;;;;;;;60.10;30.50;;;;;;;-0.05;82.95;101997.49;87608;1284;81285;-59
2022/01/13 00:34:16;;;;;;;69.80;32.10;;;;;;;-0.07;83.07;101995.33;87617;1284;99293;-59
2022/01/13 00:36:23;;;;;;;61.30;29.40;;;;;;;-0.07;83.01;101993.16;87447;1286;88398;-59
2022/01/13 00:38:30;;;;;;;61.40;29.50;;;;;;;-0.07;83.16;101982.19;87576;1284;95498;-58
2022/01/13 00:40:36;;;;;;;71.40;33.20;;;;;;;-0.04;83.20;101970.02;87594;1284;82460;-59
2022/01/13 00:42:45;;;;;;;73.00;33.40;;;;;;;0.01;83.12;101970.09;87720;1283;81877;-79
2022/01/13 00:44:54;;;;;;;64.40;30.00;;;;;;;0.05;83.15;101964.92;87694;1284;99485;-78
2022/01/13 00:47:00;;;;;;;52.00;26.70;;;;;;;0.06;83.14;101960.77;87684;1283;89225;-62
2022/01/13 00:49:07;;;;;;;49.60;26.60;;;;;;;0.06;83.23;101961.14;87580;1284;94577;-59
2022/01/13 00:51:13;;;;;;;64.50;30.90;;;;;;;0.04;83.14;101962.83;87567;1284;78054;-78
2022/01/13 00:53:18;;;;;;;60.80;29.70;;;;;;;0.00;83.12;101951.37;87705;1283;82707;-78
2022/01/13 00:55:32;;;;;;;60.30;30.00;;;;;;;-0.01;83.01;101947.52;87666;1283;99758;-79
2022/01/13 00:57:38;;;;;;;58.60;28.20;;;;;;;-0.03;83.03;101977.56;87600;1284;89601;-59
2022/01/13 00:59:44;;;;;;;71.80;34.70;;;;;;;-0.08;83.03;101996.40;87550;1283;93661;-58
2022/01/13 01:01:54;;;;;;;67.10;33.10;;;;;;;-0.13;83.06;102007.33;87633;1283;80426;-78
2022/01/13 01:04:03;;;;;;;58.80;30.80;;;;;;;-0.10;83.15;102024.52;87615;1284;81144;-79
2022/01/13 01:06:12;;;;;;;51.10;25.80;;;;;;;-0.10;83.08;102006.42;87660;1283;99237;-78
2022/01/13 01:08:22;;;;;;;50.80;24.90;;;;;;;-0.07;83.13;101976.20;87642;1283;87712;-79
2022/01/13 01:10:30;;;;;;;48.30;24.30;;;;;;;-0.03;83.25;101941.79;87587;1284;95918;-79
2022/01/13 01:12:38;;;;;;;48.10;23.20;;;;;;;-0.02;83.26;101931.28;87642;1283;77774;-78
2022/01/13 01:14:48;;;;;;;52.90;25.80;;;;;;;0.03;83.24;101927.33;87675;1283;80981;-78
2022/01/13 01:16:54;;;;;;;49.50;25.10;;;;;;;0.04;83.10;101913.05;87585;1284;98695;-59
2022/01/13 01:19:03;;;;;;;47.20;23.60;;;;;;;0.05;83.23;101904.36;87582;1284;89164;-58
2022/01/13 01:23:59;;;;;;;46.10;22.60;;;;;;;0.00;83.06;101907.80;87409;1284;79493;-78
2022/01/13 01:26:22;;;;;;;48.60;23.00;;;;;;;-0.03;83.10;101903.20;87599;1284;81085;-66
2022/01/13 01:28:40;;;;;;;44.60;23.20;;;;;;;-0.05;83.05;101899.23;87645;1283;99098;-58
2022/01/13 01:30:49;;;;;;;51.50;24.90;;;;;;;-0.05;83.08;101906.48;87662;1283;87713;-58
2022/01/13 01:32:55;;;;;;;50.30;24.00;;;;;;;-0.09;83.15;101905.66;87564;1284;95086;-77
2022/01/13 01:35:03;;;;;;;43.20;23.40;;;;;;;-0.11;83.27;101912.86;87621;1283;80006;-79
2022/01/13 01:37:17;;;;;;;49.40;24.00;;;;;;;-0.06;83.24;101918.38;87586;1284;82361;-78
2022/01/13 01:39:23;;;;;;;47.90;24.70;;;;;;;-0.05;83.18;101921.16;87597;1284;100064;-78
2022/01/13 01:41:29;;;;;;;44.60;22.60;;;;;;;-0.02;83.25;101928.27;87596;1284;88730;-78
2022/01/13 01:43:38;;;;;;;47.20;23.10;;;;;;;0.02;83.28;101935.89;87587;1284;95369;-77
2022/01/13 01:45:49;;;;;;;69.00;31.80;;;;;;;0.06;83.16;101951.23;87662;1283;77544;-79
2022/01/13 01:47:58;;;;;;;59.70;28.50;;;;;;;0.07;83.18;101955.06;87610;1284;80139;-59
2022/01/13 01:50:11;;;;;;;47.80;23.80;;;;;;;0.08;83.09;101946.35;87661;1283;99855;-59
2022/01/13 01:52:21;;;;;;;47.70;23.60;;;;;;;0.08;83.08;101934.48;87618;1284;87670;-78
2022/01/13 01:54:28;;;;;;;49.20;25.10;;;;;;;0.05;83.08;101914.44;87577;1284;94742;-78
2022/01/13 01:56:34;;;;;;;45.80;23.50;;;;;;;0.05;83.10;101901.88;87634;1283;77717;-79
2022/01/13 01:58:40;;;;;;;63.80;28.10;;;;;;;-0.02;83.07;101900.48;87601;1284;80368;-78
2022/01/13 02:00:47;;;;;;;49.90;24.00;;;;;;;-0.13;83.19;101905.18;87576;1284;98837;-78
2022/01/13 02:02:55;;;;;;;45.60;22.50;;;;;;;-0.17;83.28;101913.90;87681;1283;87505;-59
2022/01/13 02:05:01;;;;;;;49.00;22.70;;;;;;;-0.17;83.32;101927.73;87544;1284;93849;-62
2022/01/13 02:07:08;;;;;;;46.40;23.70;;;;;;;-0.21;83.53;101927.21;87598;1284;80306;-59
2022/01/13 02:09:17;;;;;;;46.30;22.90;;;;;;;-0.26;83.59;101928.17;87644;1283;82492;-62
2022/01/13 02:11:23;;;;;;;41.00;23.30;;;;;;;-0.20;83.58;101926.08;87589;1284;99190;-58
2022/01/13 02:13:33;;;;;;;47.70;21.70;;;;;;;-0.14;83.59;101928.44;87588;1284;88664;-62
2022/01/13 02:15:58;;;;;;;45.20;21.30;;;;;;;-0.15;83.44;101928.85;87579;1284;95531;-59
2022/01/13 02:18:08;;;;;;;48.90;22.70;;;;;;;-0.12;83.70;101919.08;87551;1284;81248;-59
2022/01/13 02:20:19;;;;;;;49.20;23.20;;;;;;;-0.05;83.71;101913.38;87558;1284;81837;-59
2022/01/13 02:22:26;;;;;;;53.80;24.50;;;;;;;0.03;83.68;101898.45;87688;1283;100073;-79
2022/01/13 02:24:35;;;;;;;52.30;24.20;;;;;;;0.04;83.57;101900.14;87680;1283;89998;-79
2022/01/13 02:26:40;;;;;;;49.60;23.80;;;;;;;0.05;83.58;101901.36;87576;1283;96155;-79
2022/01/13 02:28:46;;;;;;;56.50;24.90;;;;;;;0.05;83.59;101905.08;87580;1284;77720;-80
2022/01/13 02:30:52;;;;;;;53.90;25.20;;;;;;;-0.03;83.55;101906.70;87661;1284;80159;-79
2022/01/13 02:32:58;;;;;;;53.30;23.30;;;;;;;-0.04;83.55;101906.59;87577;1284;97235;-59
2022/01/13 02:35:04;;;;;;;52.80;23.70;;;;;;;-0.02;83.46;101911.48;87579;1284;87591;-59
2022/01/13 02:37:10;;;;;;;60.50;25.00;;;;;;;-0.06;83.58;101914.31;87551;1284;95413;-59
2022/01/13 02:39:16;;;;;;;61.70;27.70;;;;;;;-0.10;83.52;101916.30;87574;1284;79074;-59
2022/01/13 02:41:23;;;;;;;53.00;24.40;;;;;;;-0.11;83.70;101916.59;87570;1284;82566;-60
2022/01/13 02:43:33;;;;;;;52.60;25.90;;;;;;;-0.10;83.70;101916.13;87657;1283;99065;-59
2022/01/13 02:45:52;;;;;;;59.90;26.30;;;;;;;-0.04;83.75;101917.93;87610;1284;88023;-60
2022/01/13 02:48:25;;;;;;;52.10;23.30;;;;;;;-0.01;83.71;101919.38;87594;1284;93153;-78
2022/01/13 02:50:31;;;;;;;52.20;22.10;;;;;;;0.04;83.89;101918.38;87657;1283;80032;-78
2022/01/13 02:52:38;;;;;;;51.40;20.90;;;;;;;0.09;83.93;101913.34;87593;1284;80635;-78
2022/01/13 02:54:47;;;;;;;55.50;21.00;;;;;;;0.06;83.91;101908.21;87545;1284;100131;-78
2022/01/13 02:56:53;;;;;;;46.40;19.80;;;;;;;0.12;83.91;101895.30;87701;1283;88560;-78
2022/01/13 02:59:03;;;;;;;45.60;21.20;;;;;;;0.15;83.89;101885.34;87672;1283;94722;-78
2022/01/13 03:01:09;;;;;;;42.70;19.20;;;;;;;0.19;83.79;101887.27;87581;1284;79715;-59
2022/01/13 03:03:18;;;;;;;48.10;20.00;;;;;;;0.20;83.75;101885.21;87690;1283;83147;-59
2022/01/13 03:05:24;;;;;;;42.10;19.40;;;;;;;0.19;83.72;101872.91;87571;1284;99585;-59
2022/01/13 03:07:33;;;;;;;47.60;20.70;;;;;;;0.17;83.83;101871.25;87621;1284;88440;-65
2022/01/13 03:09:44;;;;;;;49.00;20.30;;;;;;;0.15;83.74;101874.34;87587;1284;94188;-58
2022/01/13 03:11:51;;;;;;;47.30;18.90;;;;;;;0.14;83.67;101871.91;87685;1283;79546;-59
2022/01/13 03:13:56;;;;;;;43.70;18.50;;;;;;;0.11;83.75;101871.58;87677;1284;82542;-58
2022/01/13 03:16:16;;;;;;;43.20;19.50;;;;;;;0.08;83.81;101861.69;87676;1283;98239;-59
2022/01/13 03:18:21;;;;;;;41.50;18.20;;;;;;;0.10;83.81;101860.14;87622;1284;89336;-79
2022/01/13 03:20:28;;;;;;;43.00;20.10;;;;;;;0.12;83.95;101854.72;87671;1283;94161;-77
2022/01/13 03:22:33;;;;;;;47.80;19.40;;;;;;;0.13;84.07;101848.45;87559;1284;82842;-58
2022/01/13 03:24:39;;;;;;;40.30;18.80;;;;;;;0.18;84.18;101836.48;87562;1284;83061;-58
2022/01/13 03:26:47;;;;;;;37.70;17.50;;;;;;;0.19;84.22;101831.99;87568;1284;98671;-58
2022/01/13 03:29:04;;;;;;;42.50;19.60;;;;;;;0.22;84.14;101831.61;87603;1284;88559;-58
2022/01/13 03:31:10;;;;;;;41.30;19.50;;;;;;;0.19;84.22;101836.25;87568;1284;94902;-77
2022/01/13 03:33:16;;;;;;;43.70;21.00;;;;;;;0.24;84.25;101841.46;87568;1284;77714;-78
2022/01/13 03:35:21;;;;;;;38.60;18.40;;;;;;;0.27;84.34;101840.17;87733;1283;80860;-78
2022/01/13 03:37:28;;;;;;;42.50;19.50;;;;;;;0.27;84.23;101832.39;87573;1284;99655;-77
2022/01/13 03:39:35;;;;;;;46.60;21.20;;;;;;;0.23;84.37;101825.71;87558;1284;88265;-76
2022/01/13 03:41:41;;;;;;;42.80;19.60;;;;;;;0.21;84.39;101823.36;87676;1283;93972;-77
2022/01/13 03:43:50;;;;;;;44.80;19.20;;;;;;;0.21;84.34;101816.80;87572;1284;80721;-77
2022/01/13 03:45:56;;;;;;;44.30;19.50;;;;;;;0.23;84.41;101811.20;87661;1283;81178;-76
2022/01/13 03:48:03;;;;;;;40.20;17.20;;;;;;;0.22;84.48;101800.43;87708;1282;100304;-59
2022/01/13 03:50:09;;;;;;;41.40;16.90;;;;;;;0.24;84.79;101786.30;87576;1284;88967;-58
2022/01/13 03:53:09;;;;;;;36.90;15.30;;;;;;;0.27;84.76;101785.41;87694;1283;96145;-58
2022/01/13 03:56:09;;;;;;;40.20;17.80;;;;;;;0.33;84.75;101793.46;87660;1283;79386;-58
2022/01/13 03:59:36;;;;;;;30.20;14.60;;;;;;;0.40;84.81;101788.41;87358;1284;82059;-60
2022/01/13 04:02:04;;;;;;;33.30;15.00;;;;;;;0.44;84.75;101782.29;87588;1284;100161;-61
2022/01/13 04:04:10;;;;;;;34.40;15.30;;;;;;;0.42;84.87;101780.81;87305;1285;287700;-60
2022/01/13 04:06:41;;;;;;;34.30;16.70;;;;;;;0.41;84.81;101782.30;87664;1283;95538;-77
2022/01/13 04:08:54;;;;;;;36.00;16.50;;;;;;;0.41;84.77;101776.46;87555;1284;80658;-79
2022/01/13 04:11:19;;;;;;;35.50;15.60;;;;;;;0.40;84.69;101775.45;87691;1283;82861;-79
2022/01/13 04:13:44;;;;;;;34.10;16.00;;;;;;;0.36;84.89;101776.01;87665;1283;100497;-58
2022/01/13 04:15:51;;;;;;;37.40;16.60;;;;;;;0.32;85.07;101770.63;87657;1283;89063;-64
2022/01/13 04:18:00;;;;;;;33.30;15.30;;;;;;;0.37;85.07;101765.33;87480;1285;95705;-59
2022/01/13 04:20:08;;;;;;;27.90;14.60;;;;;;;0.42;85.03;101754.99;87682;1283;81330;-59
2022/01/13 04:22:16;;;;;;;31.80;16.20;;;;;;;0.46;85.05;101745.86;87572;1284;80172;-59
2022/01/13 04:24:24;;;;;;;32.50;16.30;;;;;;;0.51;85.12;101739.67;87599;1284;100092;-59
2022/01/13 04:26:31;;;;;;;32.10;15.90;;;;;;;0.54;85.09;101731.20;87698;1283;88000;-58
2022/01/13 04:28:39;;;;;;;33.00;15.40;;;;;;;0.54;85.14;101731.70;87695;1283;93333;-59
2022/01/13 04:30:49;;;;;;;35.00;17.00;;;;;;;0.55;85.31;101730.92;87574;1284;77926;-58
2022/01/13 04:32:55;;;;;;;32.00;16.50;;;;;;;0.53;85.21;101730.17;87728;1283;81034;-58
2022/01/13 04:35:01;;;;;;;31.70;16.20;;;;;;;0.49;85.18;101730.44;87572;1284;98987;-58
2022/01/13 04:37:06;;;;;;;35.90;16.30;;;;;;;0.50;85.21;101733.54;87698;1283;87596;-78
2022/01/13 04:39:16;;;;;;;34.50;15.80;;;;;;;0.51;85.28;101734.38;87540;1284;95276;-78
2022/01/13 04:41:30;;;;;;;29.70;15.80;;;;;;;0.52;85.38;101728.84;87544;1284;78763;-78
2022/01/13 04:43:35;;;;;;;29.60;15.60;;;;;;;0.52;85.70;101731.30;87697;1284;82542;-76
2022/01/13 04:45:41;;;;;;;29.80;15.50;;;;;;;0.54;85.69;101746.58;87369;1287;100076;-76
2022/01/13 04:47:48;;;;;;;30.60;14.50;;;;;;;0.57;85.86;101745.53;87694;1284;88943;-58
2022/01/13 04:49:53;;;;;;;30.60;14.70;;;;;;;0.64;85.79;101744.08;87536;1284;96071;-57
2022/01/13 04:52:00;;;;;;;27.60;14.50;;;;;;;0.69;85.79;101746.78;87674;1284;79378;-78
2022/01/13 04:54:11;;;;;;;27.60;13.80;;;;;;;0.71;85.82;101742.23;87728;1284;83033;-79
2022/01/13 04:56:29;;;;;;;25.00;13.70;;;;;;;0.76;85.85;101739.09;87576;1284;97412;-76
2022/01/13 04:58:34;;;;;;;27.10;14.10;;;;;;;0.75;85.80;101728.52;87567;1284;90327;-75
2022/01/13 05:00:44;;;;;;;23.20;12.50;;;;;;;0.77;85.80;101711.70;87703;1284;95116;-76
2022/01/13 05:02:53;;;;;;;23.10;12.40;;;;;;;0.75;85.98;101700.98;87597;1284;78715;-58
2022/01/13 05:04:58;;;;;;;23.90;13.00;;;;;;;0.70;86.03;101704.67;87575;1284;83386;-59
2022/01/13 05:07:05;;;;;;;22.00;11.60;;;;;;;0.71;86.06;101693.46;87704;1283;98529;-76
2022/01/13 05:09:14;;;;;;;19.80;11.40;;;;;;;0.72;86.15;101697.64;87717;1284;88002;-75
2022/01/13 05:11:20;;;;;;;20.80;12.00;;;;;;;0.73;86.18;101712.99;87586;1284;94546;-76
2022/01/13 05:13:26;;;;;;;21.40;10.60;;;;;;;0.74;86.29;101713.64;87550;1284;79138;-76
2022/01/13 05:15:37;;;;;;;22.60;10.90;;;;;;;0.81;86.27;101724.23;87704;1284;82606;-76
2022/01/13 05:20:16;;;;;;;16.20;10.00;;;;;;;0.83;86.38;101722.13;87542;1283;90052;-59
2022/01/13 05:22:21;;;;;;;21.40;12.00;;;;;;;0.87;86.41;101723.48;87694;1284;95226;-78
2022/01/13 05:24:28;;;;;;;18.10;10.50;;;;;;;0.88;86.35;101721.84;87687;1284;77747;-77
2022/01/13 05:26:33;;;;;;;18.00;10.50;;;;;;;0.85;86.36;101730.52;87548;1284;82575;-58
2022/01/13 05:28:40;;;;;;;17.30;9.10;;;;;;;0.82;86.29;101723.09;87666;1284;97857;-57
2022/01/13 05:30:46;;;;;;;17.50;9.90;;;;;;;0.79;86.47;101703.61;87565;1284;87551;-58
2022/01/13 05:32:56;;;;;;;19.40;10.10;;;;;;;0.79;86.40;101698.98;87648;1283;94809;-58
2022/01/13 05:35:06;;;;;;;16.40;9.40;;;;;;;0.80;86.39;101704.98;87700;1284;79438;-58
2022/01/13 05:37:14;;;;;;;18.90;10.00;;;;;;;0.78;86.52;101697.59;87610;1284;83131;-72
2022/01/13 05:39:23;;;;;;;16.70;9.30;;;;;;;0.84;86.46;101694.04;87691;1284;100396;-72
2022/01/13 05:41:30;;;;;;;20.30;10.10;;;;;;;0.87;86.55;101677.00;87700;1286;89362;-71
2022/01/13 05:43:36;;;;;;;15.70;9.30;;;;;;;0.92;86.55;101672.42;87529;1284;94902;-69
2022/01/13 05:45:42;;;;;;;15.40;9.40;;;;;;;0.91;86.65;101672.16;87673;1284;77815;-71
2022/01/13 05:47:50;;;;;;;15.70;8.80;;;;;;;0.91;86.60;101672.86;87680;1284;82145;-58
2022/01/13 05:49:58;;;;;;;15.20;9.70;;;;;;;0.87;86.65;101671.70;87592;1284;100351;-59
2022/01/13 05:52:06;;;;;;;14.50;9.60;;;;;;;0.86;86.65;101665.06;87698;1284;89402;-59
2022/01/13 05:54:11;;;;;;;14.10;9.10;;;;;;;0.83;86.69;101661.00;87545;1284;95029;-60
2022/01/13 05:56:20;;;;;;;13.80;8.60;;;;;;;0.81;86.75;101660.21;87660;1286;79353;-74
2022/01/13 05:58:26;;;;;;;14.80;8.80;;;;;;;0.80;86.77;101643.08;87563;1284;83870;-74
2022/01/13 06:00:32;;;;;;;15.00;8.60;;;;;;;0.79;86.88;101646.66;87596;1284;99690;-73
2022/01/13 06:02:38;;;;;;;11.50;7.90;;;;;;;0.79;86.88;101639.94;87691;1284;88547;-73
2022/01/13 06:04:44;;;;;;;12.80;7.80;;;;;;;0.81;86.97;101642.14;87562;1284;95792;-73
2022/01/13 06:06:49;;;;;;;13.50;8.30;;;;;;;0.83;86.92;101643.25;87558;1284;79313;-59
2022/01/13 06:08:55;;;;;;;14.60;8.10;;;;;;;0.89;87.05;101638.23;87483;1286;83557;-59
2022/01/13 06:11:04;;;;;;;14.90;8.70;;;;;;;0.94;87.00;101638.42;87656;1284;99528;-75
2022/01/13 06:13:10;;;;;;;14.00;8.10;;;;;;;0.96;87.04;101637.06;87588;1284;88092;-75
2022/01/13 06:15:21;;;;;;;13.50;7.90;;;;;;;0.99;87.03;101636.73;87674;1284;94046;-75
2022/01/13 06:17:30;;;;;;;14.00;9.00;;;;;;;1.03;86.99;101636.42;87567;1284;77572;-58
2022/01/13 06:19:39;;;;;;;12.50;8.50;;;;;;;1.04;87.05;101632.69;87533;1284;82635;-59
2022/01/13 06:21:44;;;;;;;14.20;9.30;;;;;;;1.01;87.01;101627.14;87669;1286;98248;-58
2022/01/13 06:23:50;;;;;;;13.70;8.80;;;;;;;0.96;87.24;101615.95;87718;1284;89605;-59
2022/01/13 06:25:57;;;;;;;14.40;8.80;;;;;;;0.94;87.23;101604.89;87583;1284;92723;-59
2022/01/13 06:28:04;;;;;;;14.20;8.80;;;;;;;0.93;87.33;101597.87;87693;1284;79850;-58
2022/01/13 06:30:14;;;;;;;14.00;8.70;;;;;;;0.90;87.67;101579.09;87586;1284;80600;-59
2022/01/13 06:32:21;;;;;;;12.90;8.60;;;;;;;0.92;87.39;101566.40;87602;1284;97747;-58
2022/01/13 06:34:27;;;;;;;13.10;8.30;;;;;;;0.92;87.51;101567.65;87694;1284;87806;-59
2022/01/13 06:36:37;;;;;;;14.20;8.20;;;;;;;0.90;87.46;101549.48;87684;1286;94881;-59
2022/01/13 06:38:43;;;;;;;14.70;8.80;;;;;;;0.96;87.68;101555.51;87532;1284;79571;-60
2022/01/13 06:40:50;;;;;;;12.60;8.30;;;;;;;0.96;87.57;101545.41;87682;1284;80456;-60
2022/01/13 06:42:59;;;;;;;14.60;8.90;;;;;;;0.99;87.63;101545.52;87540;1284;98997;-59
2022/01/13 06:45:08;;;;;;;12.90;8.00;;;;;;;1.02;87.59;101550.13;87669;1284;87013;-74
2022/01/13 06:47:14;;;;;;;14.20;8.80;;;;;;;1.01;87.68;101548.40;87678;1286;95792;-58
2022/01/13 06:49:19;;;;;;;13.40;8.60;;;;;;;1.07;87.70;101555.08;87576;1284;80035;-58
2022/01/13 06:51:26;;;;;;;12.70;8.40;;;;;;;1.09;87.74;101558.52;87732;1284;83809;-60
2022/01/13 06:53:32;;;;;;;14.10;9.60;;;;;;;1.12;87.75;101558.15;87707;1284;97213;-74
2022/01/13 06:55:50;;;;;;;14.40;8.90;;;;;;;1.10;87.69;101561.45;87592;1284;87635;-72
2022/01/13 06:57:56;;;;;;;16.00;8.80;;;;;;;1.06;87.55;101577.52;87682;1286;93049;-59
2022/01/13 07:00:03;;;;;;;14.10;8.70;;;;;;;1.05;87.55;101591.98;87737;1283;78654;-59
2022/01/13 07:02:09;;;;;;;15.30;9.50;;;;;;;1.06;87.47;101599.36;87731;1283;80372;-59
2022/01/13 07:04:15;;;;;;;14.90;9.90;;;;;;;1.07;87.52;101585.27;87571;1284;100310;-59
2022/01/13 07:06:21;;;;;;;14.20;9.00;;;;;;;1.05;87.63;101581.86;87583;1284;87983;-71
2022/01/13 07:08:30;;;;;;;12.90;8.50;;;;;;;1.07;87.62;101592.73;87732;1283;95539;-72
2022/01/13 07:10:36;;;;;;;12.80;8.80;;;;;;;1.09;87.68;101598.40;87708;1283;79315;-73
2022/01/13 07:12:45;;;;;;;14.00;8.60;;;;;;;1.10;87.72;101596.60;87577;1284;80972;-73
2022/01/13 07:14:51;;;;;;;13.90;8.80;;;;;;;1.14;87.71;101597.02;87569;1284;99993;-72
2022/01/13 07:16:58;;;;;;;11.60;8.80;;;;;;;1.24;87.73;101594.98;87743;1283;87898;-71
2022/01/13 07:19:08;;;;;;;14.30;9.20;;;;;;;1.24;87.85;101587.20;87535;1284;93058;-70
2022/01/13 07:21:17;;;;;;;15.60;9.90;;;;;;;1.18;87.86;101585.23;87551;1284;78278;-58
2022/01/13 07:23:26;;;;;;;16.40;10.80;;;;;;;1.19;87.84;101588.34;87724;1283;82983;-59
2022/01/13 07:25:32;;;;;;;17.20;10.50;;;;;;;1.18;87.77;101582.07;87757;1283;100078;-58
2022/01/13 07:27:38;;;;;;;16.20;11.00;;;;;;;1.16;87.71;101582.68;87574;1284;89062;-74
2022/01/13 07:29:44;;;;;;;15.10;9.90;;;;;;;1.16;87.84;101579.20;87719;1283;95273;-60
2022/01/13 07:31:50;;;;;;;15.50;10.90;;;;;;;1.14;87.75;101576.29;87557;1284;80539;-58
2022/01/13 07:33:57;;;;;;;16.10;10.00;;;;;;;1.16;87.71;101577.59;87722;1283;81040;-59
2022/01/13 07:36:06;;;;;;;15.30;9.70;;;;;;;1.18;87.75;101586.46;87534;1284;98666;-61
2022/01/13 07:38:12;;;;;;;17.00;10.40;;;;;;;1.25;87.89;101589.40;87467;1286;89271;-58
2022/01/13 07:40:19;;;;;;;18.60;11.50;;;;;;;1.27;87.90;101597.63;87684;1283;95393;-60
2022/01/13 07:42:26;;;;;;;18.10;10.50;;;;;;;1.31;87.85;101593.79;87563;1284;81913;-74
2022/01/13 07:44:35;;;;;;;15.90;10.40;;;;;;;1.37;87.83;101594.44;87766;1284;82898;-74
2022/01/13 07:46:41;;;;;;;19.70;12.90;;;;;;;1.40;87.82;101614.11;87729;1283;99621;-74
2022/01/13 07:48:46;;;;;;;20.50;11.60;;;;;;;1.40;87.87;101617.30;87465;1286;87587;-74
2022/01/13 07:50:53;;;;;;;19.10;12.10;;;;;;;1.39;87.90;101616.14;87716;1283;95402;-74
2022/01/13 07:52:59;;;;;;;17.60;11.50;;;;;;;1.38;87.81;101617.66;87543;1284;81309;-59
2022/01/13 07:55:05;;;;;;;22.70;13.20;;;;;;;1.35;87.76;101616.08;87716;1283;82721;-59
2022/01/13 07:57:11;;;;;;;20.30;12.10;;;;;;;1.39;87.77;101610.30;87561;1284;98987;-59
2022/01/13 07:59:17;;;;;;;17.30;11.70;;;;;;;1.35;87.76;101602.77;87539;1284;88171;-59
2022/01/13 08:01:23;;;;;;;19.90;12.10;;;;;;;1.38;87.87;101596.69;87732;1283;93788;-74
2022/01/13 08:03:29;;;;;;;18.80;11.60;;;;;;;1.41;87.86;101592.58;87568;1284;81864;-75
2022/01/13 08:05:38;;;;;;;20.10;12.60;;;;;;;1.46;87.77;101595.96;87572;1284;82332;-74
2022/01/13 08:07:45;;;;;;;18.60;12.20;;;;;;;1.49;87.89;101596.84;87532;1284;98732;-60
2022/01/13 08:09:53;;;;;;;20.40;12.70;;;;;;;1.51;87.84;101604.13;87719;1283;88126;-59
2022/01/13 08:11:59;;;;;;;22.80;12.70;;;;;;;1.56;87.90;101609.14;87704;1283;95357;-59
2022/01/13 08:14:05;;;;;;;21.90;14.40;;;;;;;1.59;87.83;101609.67;87545;1284;77486;-59
2022/01/13 08:16:16;;;;;;;19.00;13.10;;;;;;;1.63;87.72;101602.80;87728;1283;83617;-60
2022/01/13 08:20:49;;;;;;;23.40;14.00;;;;;;;1.64;87.75;101602.73;87710;1283;87647;-59
2022/01/13 08:22:55;;;;;;;22.50;13.10;;;;;;;1.62;87.83;101594.02;87474;1286;93198;-75
2022/01/13 08:25:05;;;;;;;21.70;12.90;;;;;;;1.59;87.85;101595.42;87536;1284;80301;-75
2022/01/13 08:27:13;;;;;;;22.30;13.80;;;;;;;1.60;87.84;101592.89;87762;1283;81357;-58
2022/01/13 08:29:19;;;;;;;21.60;12.80;;;;;;;1.63;87.84;101597.84;87572;1284;99862;-60
2022/01/13 08:31:25;;;;;;;22.20;12.80;;;;;;;1.63;87.84;101599.48;87733;1283;89752;-59
2022/01/13 08:33:31;;;;;;;21.00;13.00;;;;;;;1.68;88.09;101603.14;87559;1284;95304;-64
2022/01/13 08:35:43;;;;;;;23.50;13.80;;;;;;;1.72;88.08;101605.95;87704;1283;79799;-60
2022/01/13 08:37:52;;;;;;;23.50;14.10;;;;;;;1.75;88.01;101613.18;87574;1284;83235;-75
2022/01/13 08:39:58;;;;;;;24.10;13.30;;;;;;;1.76;88.05;101620.74;87722;1283;99722;-73
2022/01/13 08:42:05;;;;;;;22.50;13.90;;;;;;;1.81;88.03;101617.90;87576;1284;87392;-71
2022/01/13 08:44:12;;;;;;;19.80;13.20;;;;;;;1.83;88.02;101622.73;87567;1284;95328;-74
2022/01/13 08:46:17;;;;;;;23.00;13.70;;;;;;;1.84;88.01;101616.85;87742;1284;77519;-59
2022/01/13 08:48:23;;;;;;;22.40;15.00;;;;;;;1.87;87.93;101608.48;87562;1284;82215;-59
2022/01/13 08:50:32;;;;;;;23.40;14.80;;;;;;;1.83;87.98;101607.33;87575;1284;99682;-60
2022/01/13 08:52:39;;;;;;;23.40;14.40;;;;;;;1.82;87.93;101605.47;87731;1284;88997;-72
2022/01/13 08:54:46;;;;;;;21.70;12.80;;;;;;;1.82;87.95;101598.71;87532;1284;95486;-58
2022/01/13 08:56:52;;;;;;;21.70;14.30;;;;;;;1.79;87.94;101589.11;87590;1284;78945;-77
2022/01/13 08:59:01;;;;;;;20.30;14.00;;;;;;;1.80;87.91;101580.34;87713;1284;80186;-73
2022/01/13 09:01:07;;;;;;;20.30;12.80;;;;;;;1.84;88.14;101568.18;87570;1284;97948;-69
2022/01/13 09:03:16;;;;;;;22.20;14.20;;;;;;;1.85;87.95;101569.54;87563;1284;87241;-71
2022/01/13 09:05:25;;;;;;;20.90;12.50;;;;;;;1.90;87.97;101571.10;87737;1284;95062;-70
2022/01/13 09:07:33;;;;;;;20.20;12.00;;;;;;;1.94;88.11;101571.05;88056;1283;81564;-73
2022/01/13 09:09:39;;;;;;;18.50;13.20;;;;;;;1.97;88.15;101576.51;87570;1284;82762;-73
2022/01/13 09:11:45;;;;;;;20.20;12.20;;;;;;;2.01;88.15;101574.08;87453;1285;97670;-69
2022/01/13 09:13:56;;;;;;;20.30;13.60;;;;;;;2.00;88.20;101581.30;87557;1284;87595;-68
2022/01/13 09:16:04;;;;;;;21.70;14.20;;;;;;;2.05;88.15;101577.70;87747;1284;95374;-70
2022/01/13 09:18:14;;;;;;;22.50;14.20;;;;;;;2.09;88.04;101574.27;87753;1284;79719;-60
2022/01/13 09:20:20;;;;;;;23.70;15.30;;;;;;;2.08;88.16;101580.15;87539;1284;82945;-61
2022/01/13 09:22:26;;;;;;;23.90;14.10;;;;;;;2.08;87.98;101578.02;87770;1284;100388;-61
2022/01/13 09:24:32;;;;;;;23.00;13.90;;;;;;;2.08;88.03;101583.17;87568;1284;88975;-59
2022/01/13 09:26:43;;;;;;;21.10;12.50;;;;;;;2.08;87.89;101578.77;87520;1284;95471;-73
2022/01/13 09:28:52;;;;;;;20.90;14.00;;;;;;;2.07;87.97;101574.03;87726;1284;79221;-73
2022/01/13 09:30:58;;;;;;;21.00;13.30;;;;;;;2.09;88.00;101576.91;87552;1284;81614;-70
2022/01/13 09:33:05;;;;;;;20.10;12.70;;;;;;;2.07;88.30;101580.23;87723;1284;99611;-59
2022/01/13 09:35:14;;;;;;;22.10;13.70;;;;;;;2.09;88.22;101576.70;87525;1283;87758;-59
2022/01/13 09:37:20;;;;;;;18.10;12.30;;;;;;;2.14;88.04;101563.42;87736;1284;95309;-61
2022/01/13 09:39:47;;;;;;;18.20;11.80;;;;;;;2.18;88.22;101549.94;87726;1284;80442;-62
2022/01/13 09:41:57;;;;;;;21.00;12.60;;;;;;;2.26;88.39;101541.55;87738;1284;80458;-73
2022/01/13 09:44:07;;;;;;;21.10;12.70;;;;;;;2.31;88.27;101547.65;87515;1284;98534;-72
2022/01/13 09:46:14;;;;;;;20.50;13.80;;;;;;;2.35;88.22;101536.48;87741;1284;86243;-72
2022/01/13 09:48:22;;;;;;;26.10;15.30;;;;;;;2.37;88.23;101532.98;87516;1284;93409;-73
2022/01/13 09:50:31;;;;;;;22.30;14.50;;;;;;;2.37;88.09;101529.95;87737;1284;77850;-73
2022/01/13 09:52:40;;;;;;;23.00;14.70;;;;;;;2.34;88.22;101522.36;87714;1284;84049;-60
2022/01/13 09:54:46;;;;;;;21.40;13.50;;;;;;;2.33;88.11;101517.27;87697;1284;97479;-60
2022/01/13 09:56:52;;;;;;;20.50;12.60;;;;;;;2.27;88.05;101514.48;87533;1284;87034;-72
2022/01/13 09:58:58;;;;;;;22.10;13.40;;;;;;;2.25;88.20;101516.42;87537;1284;92688;-71
2022/01/13 10:01:06;;;;;;;23.20;13.80;;;;;;;2.24;88.12;101512.06;87711;1284;80844;-69
2022/01/13 10:03:15;;;;;;;20.00;13.00;;;;;;;2.26;88.16;101507.60;87718;1284;82107;-59
2022/01/13 10:05:22;;;;;;;17.90;11.20;;;;;;;2.28;88.19;101507.47;87530;1284;99876;-59